Terminal Aerodrome Forecast
Issued by NWS Charleston, WV

Current Version | Previous Version | Graphics & Text | Print | Product List | Glossary On
Versions: 1 2 3 4 5 6 7 8 9 10 11 12 13 14 15 16 17 18 19 20 21 22 23 24 25
318
FTUS41 KRLX 210544
TAFEKN
TAF
KEKN 210544Z 2106/2206 00000KT 3SM BR FEW002
      TEMPO 2107/2108 1SM BR BKN001
     FM210800 00000KT 1/2SM FG VV001
     FM211200 00000KT 2SM BR BKN002
     FM211300 00000KT 6SM HZ FEW002
     FM211400 00000KT P6SM SKC
     FM211600 VRB03KT P6SM SCT045
     FM220000 00000KT P6SM SCT250=

USA.gov is the U.S. government's official web portal to all federal, state and local government web resources and services.